Time;durP1;ratioP1;P1;durP2;ratioP2;P2;SDS_P1;SDS_P2;PMS_P1;PMS_P2;Temp;Humidity;BMP_temperature;BMP_pressure;BME280_temperature;BME280_humidity;BME280_pressure;Samples;Min_cycle;Max_cycle;Signal;HPM_P1;HPM_P2
2023/10/27 00:01:28;;;;;;;4.40;0.53;;;11.50;99.90;;;;;;4970860;28;20200;-53
2023/10/27 00:03:56;;;;;;;0.53;0.30;;;11.50;99.90;;;;;;4972404;28;20286;-53
2023/10/27 00:06:23;;;;;;;2.97;0.60;;;11.40;99.90;;;;;;4972387;28;20229;-53
2023/10/27 00:08:52;;;;;;;0.80;0.33;;;11.40;99.90;;;;;;4972482;28;20230;-54
2023/10/27 00:11:19;;;;;;;2.00;0.40;;;11.40;99.90;;;;;;4972219;28;20705;-54
2023/10/27 00:13:46;;;;;;;0.60;0.30;;;11.40;99.90;;;;;;4971184;28;20710;-54
2023/10/27 00:16:14;;;;;;;0.63;0.40;;;11.50;99.90;;;;;;4972666;28;20750;-54
2023/10/27 00:18:41;;;;;;;0.40;0.40;;;11.40;99.90;;;;;;4972542;28;20236;-54
2023/10/27 00:21:08;;;;;;;1.40;0.40;;;11.40;99.90;;;;;;4972598;28;20223;-54
2023/10/27 00:23:35;;;;;;;1.27;0.60;;;11.40;99.90;;;;;;4972287;28;20215;-54
2023/10/27 00:26:06;;;;;;;1.60;0.63;;;11.50;99.90;;;;;;4971897;28;20235;-54
2023/10/27 00:28:33;;;;;;;2.43;1.23;;;11.40;99.90;;;;;;4971385;28;20239;-53
2023/10/27 00:31:02;;;;;;;2.77;0.73;;;11.50;99.90;;;;;;4971967;28;20197;-54
2023/10/27 00:33:29;;;;;;;3.03;0.60;;;11.40;99.90;;;;;;4971029;28;20203;-53
2023/10/27 00:35:56;;;;;;;1.10;0.90;;;11.40;99.90;;;;;;4972232;28;20196;-54
2023/10/27 00:38:23;;;;;;;1.50;0.67;;;11.30;99.90;;;;;;4970367;28;20239;-53
2023/10/27 00:40:50;;;;;;;1.60;0.50;;;11.40;99.90;;;;;;4969637;28;20212;-54
2023/10/27 00:43:20;;;;;;;2.97;0.80;;;11.40;99.90;;;;;;4971915;28;20220;-55
2023/10/27 00:45:49;;;;;;;3.17;0.80;;;11.30;99.90;;;;;;4970732;28;20227;-54
2023/10/27 00:48:16;;;;;;;3.87;1.20;;;11.30;99.90;;;;;;4970250;28;20308;-53
2023/10/27 00:50:44;;;;;;;1.13;0.80;;;11.30;99.90;;;;;;4970611;28;20278;-54
2023/10/27 00:53:12;;;;;;;1.93;0.90;;;11.20;99.90;;;;;;4977223;28;20211;-53
2023/10/27 00:55:40;;;;;;;1.77;0.70;;;11.20;99.90;;;;;;4975334;28;20254;-54
2023/10/27 00:58:09;;;;;;;2.13;1.07;;;11.10;99.90;;;;;;4971823;28;20678;-53
2023/10/27 01:00:37;;;;;;;1.60;0.90;;;11.10;99.90;;;;;;4971283;28;20236;-54
2023/10/27 01:03:05;;;;;;;1.50;1.10;;;10.90;99.90;;;;;;4965670;28;20205;-54
2023/10/27 01:05:32;;;;;;;4.03;1.00;;;11.10;99.90;;;;;;4968464;28;20269;-54
2023/10/27 01:07:59;;;;;;;0.87;0.73;;;11.10;99.90;;;;;;4971786;28;20235;-54
2023/10/27 01:10:26;;;;;;;1.20;0.80;;;11.10;99.90;;;;;;4971871;28;20212;-54
2023/10/27 01:12:53;;;;;;;3.30;0.80;;;11.10;99.90;;;;;;4970528;28;20215;-54
2023/10/27 01:15:21;;;;;;;1.13;0.80;;;11.10;99.90;;;;;;4971543;28;20215;-53
2023/10/27 01:17:49;;;;;;;1.33;0.90;;;11.00;99.90;;;;;;4970615;28;20289;-54
2023/10/27 01:20:16;;;;;;;0.87;0.87;;;11.00;99.90;;;;;;4966443;28;20212;-53
2023/10/27 01:22:46;;;;;;;2.50;1.13;;;11.00;99.90;;;;;;4966727;28;20224;-53
2023/10/27 01:25:13;;;;;;;5.77;1.10;;;11.10;99.90;;;;;;4967899;28;20653;-54
2023/10/27 01:27:40;;;;;;;4.77;1.10;;;11.10;99.90;;;;;;4970627;28;20228;-53
2023/10/27 01:30:09;;;;;;;1.10;0.80;;;11.10;99.90;;;;;;4979509;28;20210;-54
2023/10/27 01:32:36;;;;;;;1.80;0.80;;;11.10;99.90;;;;;;4980880;28;20289;-54
2023/10/27 01:35:04;;;;;;;1.67;0.80;;;11.10;99.90;;;;;;4969294;28;20211;-54
2023/10/27 01:37:31;;;;;;;1.70;1.07;;;11.20;99.90;;;;;;4965378;28;20782;-53
2023/10/27 01:39:59;;;;;;;0.80;0.80;;;11.10;99.90;;;;;;4974562;28;20685;-54
2023/10/27 01:42:26;;;;;;;3.23;0.53;;;11.10;99.90;;;;;;4979732;28;20207;-54
2023/10/27 01:44:54;;;;;;;0.97;0.93;;;11.10;99.90;;;;;;4968215;28;20228;-53
2023/10/27 01:47:21;;;;;;;0.50;0.50;;;11.10;99.90;;;;;;4969826;28;20671;-53
2023/10/27 01:49:48;;;;;;;1.50;0.60;;;11.00;99.90;;;;;;4967358;28;20266;-54
2023/10/27 01:52:15;;;;;;;0.50;0.50;;;11.00;99.90;;;;;;4968232;28;20204;-54
2023/10/27 01:54:42;;;;;;;1.20;0.70;;;11.10;99.90;;;;;;4972423;28;20575;-53
2023/10/27 01:57:10;;;;;;;0.50;0.50;;;11.10;99.90;;;;;;4977720;28;20277;-53
2023/10/27 01:59:37;;;;;;;0.50;0.50;;;11.10;99.90;;;;;;4976595;28;20362;-54
2023/10/27 02:02:04;;;;;;;1.30;0.77;;;11.00;99.90;;;;;;4967766;28;20727;-54
2023/10/27 02:04:35;;;;;;;0.70;0.53;;;11.00;99.90;;;;;;4969872;28;20231;-54
2023/10/27 02:07:04;;;;;;;0.57;0.57;;;11.00;99.90;;;;;;4970418;28;20258;-53
2023/10/27 02:09:31;;;;;;;1.13;0.60;;;11.00;99.90;;;;;;4979318;28;20675;-56
2023/10/27 02:11:58;;;;;;;3.03;0.50;;;11.00;99.90;;;;;;4975839;28;20270;-54
2023/10/27 02:14:27;;;;;;;3.50;1.00;;;11.00;99.90;;;;;;4973774;28;20664;-53
2023/10/27 02:16:54;;;;;;;1.53;0.40;;;11.00;99.90;;;;;;4987819;28;20211;-54
2023/10/27 02:19:21;;;;;;;0.50;0.50;;;11.00;99.90;;;;;;4975304;28;20203;-54
2023/10/27 02:21:48;;;;;;;0.50;0.50;;;11.00;99.90;;;;;;4976314;28;20211;-53
2023/10/27 02:24:15;;;;;;;0.83;0.47;;;11.00;99.90;;;;;;4984394;28;20279;-54
2023/10/27 02:26:42;;;;;;;0.80;0.80;;;11.00;99.90;;;;;;4976869;28;20222;-54
2023/10/27 02:29:09;;;;;;;1.07;0.77;;;11.00;99.90;;;;;;4974707;28;20270;-54
2023/10/27 02:31:37;;;;;;;1.13;0.73;;;11.00;99.90;;;;;;4982205;28;20213;-54
2023/10/27 02:34:04;;;;;;;1.43;0.83;;;11.20;99.90;;;;;;4982500;28;20205;-54
2023/10/27 02:36:31;;;;;;;0.60;0.60;;;11.30;99.90;;;;;;4982594;28;20201;-53
2023/10/27 02:38:58;;;;;;;0.50;0.50;;;11.30;99.90;;;;;;4990739;28;20234;-54
2023/10/27 02:41:25;;;;;;;1.30;0.40;;;11.30;99.90;;;;;;4966925;28;20252;-54
2023/10/27 02:43:52;;;;;;;1.43;0.60;;;11.10;99.90;;;;;;4979892;28;20672;-54
2023/10/27 02:46:19;;;;;;;0.70;0.70;;;11.00;99.90;;;;;;4972958;28;20226;-54
2023/10/27 02:48:46;;;;;;;0.60;0.60;;;11.00;99.90;;;;;;4979637;28;20230;-54
2023/10/27 02:51:16;;;;;;;1.37;0.90;;;11.00;99.90;;;;;;4985512;28;20670;-54
2023/10/27 02:53:43;;;;;;;1.23;0.73;;;11.00;99.90;;;;;;4985359;28;20200;-54
2023/10/27 02:56:10;;;;;;;1.13;1.03;;;11.00;99.90;;;;;;4993871;28;20215;-54
2023/10/27 02:58:38;;;;;;;1.20;1.20;;;11.10;99.90;;;;;;4983125;28;20240;-54
2023/10/27 03:01:08;;;;;;;0.80;0.80;;;11.10;99.90;;;;;;4974405;28;20827;-53
2023/10/27 03:03:35;;;;;;;1.63;0.83;;;11.10;99.90;;;;;;4973892;28;20298;-54
2023/10/27 03:06:05;;;;;;;1.97;1.20;;;11.20;99.90;;;;;;4974095;28;20552;-53
2023/10/27 03:08:33;;;;;;;0.70;0.63;;;11.10;99.90;;;;;;4974357;28;20326;-53
2023/10/27 03:11:04;;;;;;;2.47;1.23;;;11.10;99.90;;;;;;4981982;28;20266;-53
2023/10/27 03:13:31;;;;;;;1.00;0.80;;;11.10;99.90;;;;;;4979297;28;20202;-53
2023/10/27 03:15:58;;;;;;;1.23;0.90;;;11.10;99.90;;;;;;4973140;28;20652;-54
2023/10/27 03:18:26;;;;;;;2.30;1.20;;;11.10;99.90;;;;;;5005143;23;20665;-60
2023/10/27 03:20:56;;;;;;;3.37;0.90;;;11.00;99.90;;;;;;4994443;28;20210;-60
2023/10/27 03:23:25;;;;;;;0.80;0.80;;;11.10;99.90;;;;;;4979333;28;20235;-60
2023/10/27 03:25:53;;;;;;;1.60;0.70;;;11.00;99.90;;;;;;4988167;28;20281;-60
2023/10/27 03:28:21;;;;;;;1.07;1.00;;;11.00;99.90;;;;;;4974904;28;20227;-60
2023/10/27 03:30:49;;;;;;;1.40;1.00;;;11.00;99.90;;;;;;4986655;28;20740;-60
2023/10/27 03:33:17;;;;;;;1.00;1.00;;;11.00;99.90;;;;;;4980457;28;20211;-60
2023/10/27 03:35:44;;;;;;;2.87;1.27;;;10.90;99.90;;;;;;4975719;28;20235;-60
2023/10/27 03:38:12;;;;;;;2.03;1.00;;;11.00;99.90;;;;;;4992925;28;20226;-60
2023/10/27 03:40:43;;;;;;;1.10;0.67;;;11.00;99.90;;;;;;4988683;28;20240;-60
2023/10/27 03:43:10;;;;;;;1.73;1.63;;;11.00;99.90;;;;;;4980487;28;20301;-60
2023/10/27 03:45:37;;;;;;;1.97;1.87;;;11.00;99.90;;;;;;4974735;28;20219;-60
2023/10/27 03:48:04;;;;;;;1.90;1.80;;;11.00;99.90;;;;;;4991747;28;20234;-60
2023/10/27 03:50:31;;;;;;;1.93;1.70;;;11.00;99.90;;;;;;4999953;28;20207;-60
2023/10/27 03:52:59;;;;;;;1.43;1.43;;;11.00;99.90;;;;;;4982688;28;20203;-60
2023/10/27 03:55:26;;;;;;;1.93;1.83;;;11.00;99.90;;;;;;4974588;28;20210;-60
2023/10/27 03:57:55;;;;;;;3.70;2.60;;;11.00;99.90;;;;;;4986871;28;20222;-60
2023/10/27 04:00:24;;;;;;;5.47;2.40;;;11.00;99.90;;;;;;4993453;28;20236;-60
2023/10/27 04:02:51;;;;;;;1.57;1.47;;;11.00;99.90;;;;;;4993404;28;20203;-60
2023/10/27 04:05:18;;;;;;;2.37;2.20;;;11.00;99.90;;;;;;4992044;28;20302;-60
2023/10/27 04:07:45;;;;;;;2.50;1.93;;;11.10;99.90;;;;;;4996338;28;20663;-60
2023/10/27 04:10:12;;;;;;;3.87;2.50;;;11.00;99.90;;;;;;4993405;28;20216;-60
2023/10/27 04:12:39;;;;;;;2.30;2.10;;;11.10;99.90;;;;;;4988269;28;20733;-60
2023/10/27 04:15:10;;;;;;;2.40;1.73;;;11.10;99.90;;;;;;4993118;28;20203;-60
2023/10/27 04:17:37;;;;;;;2.67;2.23;;;11.00;99.90;;;;;;4998665;28;20234;-59
2023/10/27 04:20:04;;;;;;;3.17;2.10;;;11.10;99.90;;;;;;4994282;28;20210;-59
2023/10/27 04:22:31;;;;;;;2.13;2.00;;;11.10;99.90;;;;;;4993522;28;20213;-60
2023/10/27 04:24:59;;;;;;;2.57;1.80;;;11.00;99.90;;;;;;4992406;28;20200;-59
2023/10/27 04:27:28;;;;;;;1.57;1.47;;;11.10;99.90;;;;;;4996266;28;20208;-60
2023/10/27 04:29:54;;;;;;;2.20;1.67;;;11.10;99.90;;;;;;4993734;28;20254;-59
2023/10/27 04:32:24;;;;;;;1.93;1.50;;;11.10;99.90;;;;;;4992978;28;20206;-59
2023/10/27 04:34:51;;;;;;;1.23;1.00;;;11.10;99.90;;;;;;4992338;28;20293;-59
2023/10/27 04:37:19;;;;;;;0.67;0.67;;;11.10;99.90;;;;;;4991249;28;20198;-60
2023/10/27 04:39:46;;;;;;;0.87;0.87;;;11.10;99.90;;;;;;4992818;28;20273;-60
2023/10/27 04:42:13;;;;;;;1.40;0.70;;;11.10;99.90;;;;;;4992656;28;20209;-59
2023/10/27 04:44:40;;;;;;;1.80;0.53;;;11.10;99.90;;;;;;4992397;28;20285;-59
2023/10/27 04:47:07;;;;;;;0.70;0.70;;;11.10;99.90;;;;;;4991869;28;20222;-60
2023/10/27 04:49:35;;;;;;;0.70;0.70;;;11.10;99.90;;;;;;4988925;28;20210;-59
2023/10/27 04:52:02;;;;;;;3.90;0.73;;;11.10;99.90;;;;;;4992905;28;20227;-59
2023/10/27 04:54:29;;;;;;;2.10;1.67;;;11.00;99.90;;;;;;4999263;28;20666;-60
2023/10/27 04:56:56;;;;;;;0.80;0.80;;;11.10;99.90;;;;;;4992476;28;20574;-60
2023/10/27 04:59:23;;;;;;;1.70;0.70;;;11.00;99.90;;;;;;4992125;28;20344;-59
2023/10/27 05:01:50;;;;;;;0.77;0.73;;;11.10;99.90;;;;;;4984805;28;20206;-59
2023/10/27 05:04:17;;;;;;;1.27;0.70;;;11.20;99.90;;;;;;4992284;28;20286;-59
2023/10/27 05:06:46;;;;;;;0.70;0.70;;;11.20;99.90;;;;;;4992345;28;20637;-60
2023/10/27 05:09:13;;;;;;;1.47;0.90;;;11.10;99.90;;;;;;4994918;28;20230;-60
2023/10/27 05:11:42;;;;;;;1.93;1.10;;;11.20;99.90;;;;;;4992249;28;20289;-59
2023/10/27 05:14:09;;;;;;;1.10;1.10;;;11.10;99.90;;;;;;4991894;28;20202;-60
2023/10/27 05:16:36;;;;;;;0.60;0.60;;;11.10;99.90;;;;;;4992439;28;20625;-60
2023/10/27 05:19:04;;;;;;;0.97;0.97;;;11.00;99.90;;;;;;4991261;28;20230;-60
2023/10/27 05:21:31;;;;;;;0.50;0.50;;;11.00;99.90;;;;;;4992414;28;20210;-60
2023/10/27 05:24:01;;;;;;;0.50;0.50;;;11.00;99.90;;;;;;4991943;28;20214;-60
2023/10/27 05:26:28;;;;;;;2.43;0.50;;;11.00;99.90;;;;;;4992192;28;20230;-59
2023/10/27 05:28:55;;;;;;;0.73;0.73;;;11.00;99.90;;;;;;4993305;28;20715;-60
2023/10/27 05:31:23;;;;;;;0.47;0.47;;;11.00;99.90;;;;;;4995349;28;20290;-60
2023/10/27 05:33:50;;;;;;;0.40;0.40;;;11.00;99.90;;;;;;4991770;28;20211;-59
2023/10/27 05:36:17;;;;;;;0.50;0.50;;;11.00;99.90;;;;;;4992061;28;20206;-59
2023/10/27 05:38:44;;;;;;;0.57;0.50;;;11.10;99.90;;;;;;4991012;28;20226;-60
2023/10/27 05:41:14;;;;;;;0.80;0.57;;;11.10;99.90;;;;;;4991655;28;20247;-59
2023/10/27 05:43:41;;;;;;;0.60;0.60;;;11.00;99.90;;;;;;4991536;28;20608;-59
2023/10/27 05:46:08;;;;;;;0.80;0.80;;;11.10;99.90;;;;;;4993722;28;20270;-60
2023/10/27 05:48:35;;;;;;;0.80;0.80;;;11.10;99.90;;;;;;4997283;28;20646;-59
2023/10/27 05:51:03;;;;;;;0.90;0.83;;;11.10;99.90;;;;;;4995948;28;20207;-59
2023/10/27 05:53:30;;;;;;;1.10;1.00;;;11.00;99.90;;;;;;4995630;28;20668;-59
2023/10/27 05:55:57;;;;;;;1.00;1.00;;;11.00;99.90;;;;;;4995827;28;20254;-59
2023/10/27 05:58:30;;;;;;;0.70;0.70;;;11.00;99.90;;;;;;4997786;28;20223;-59
2023/10/27 06:00:57;;;;;;;0.87;0.70;;;11.10;99.90;;;;;;4988026;28;20205;-59
2023/10/27 06:03:24;;;;;;;1.73;0.67;;;11.10;99.90;;;;;;4995556;28;20273;-59
2023/10/27 06:05:52;;;;;;;0.50;0.50;;;11.10;99.90;;;;;;4995590;28;20596;-60
2023/10/27 06:08:19;;;;;;;1.20;0.77;;;11.10;99.90;;;;;;4997175;28;20227;-60
2023/10/27 06:10:46;;;;;;;0.80;0.80;;;11.10;99.90;;;;;;4994945;28;20272;-59
2023/10/27 06:13:14;;;;;;;1.33;0.70;;;11.10;99.90;;;;;;4995336;28;20206;-59
2023/10/27 06:15:42;;;;;;;0.73;0.73;;;11.10;99.90;;;;;;4995689;28;20203;-59
2023/10/27 06:18:09;;;;;;;1.17;1.00;;;11.10;99.90;;;;;;4996548;28;20293;-59
2023/10/27 06:20:36;;;;;;;1.93;0.60;;;11.10;99.90;;;;;;4997589;28;20254;-59
2023/10/27 06:23:04;;;;;;;1.23;0.93;;;11.10;99.90;;;;;;4994950;28;20206;-59
2023/10/27 06:25:31;;;;;;;0.60;0.50;;;11.20;99.90;;;;;;4995418;28;20269;-59
2023/10/27 06:27:57;;;;;;;0.73;0.60;;;11.30;99.90;;;;;;4996285;28;20230;-60
2023/10/27 06:30:24;;;;;;;1.03;0.40;;;11.30;99.90;;;;;;4995198;28;20207;-59
2023/10/27 06:32:53;;;;;;;1.03;0.30;;;11.30;99.90;;;;;;4995242;28;20204;-59
2023/10/27 06:35:20;;;;;;;0.77;0.37;;;11.40;99.90;;;;;;4994974;28;20210;-59
2023/10/27 06:37:47;;;;;;;0.77;0.50;;;11.30;99.90;;;;;;4995276;28;20229;-59
2023/10/27 06:40:14;;;;;;;0.47;0.20;;;11.30;99.90;;;;;;4996504;28;20203;-59
2023/10/27 06:42:44;;;;;;;1.00;0.60;;;11.30;99.90;;;;;;4991739;28;20441;-60
2023/10/27 06:45:11;;;;;;;0.87;0.37;;;11.30;99.90;;;;;;4990200;28;20200;-59
2023/10/27 06:47:39;;;;;;;0.10;0.10;;;11.40;99.90;;;;;;4994208;28;20300;-59
2023/10/27 06:50:09;;;;;;;0.07;0.00;;;11.40;99.90;;;;;;4986472;28;20261;-59
2023/10/27 06:52:36;;;;;;;0.20;0.20;;;11.50;99.90;;;;;;4994660;28;20217;-59
2023/10/27 06:55:03;;;;;;;0.00;0.00;;;11.50;99.90;;;;;;4994220;28;20253;-59
2023/10/27 06:57:31;;;;;;;0.00;0.00;;;11.60;99.90;;;;;;4988159;28;20768;-66
2023/10/27 06:59:58;;;;;;;0.30;0.10;;;11.50;99.90;;;;;;4992780;28;20281;-63
2023/10/27 07:02:26;;;;;;;0.03;0.03;;;11.50;99.90;;;;;;4994103;28;20206;-59
2023/10/27 07:04:53;;;;;;;0.67;0.03;;;11.50;99.90;;;;;;4993657;28;20219;-59
2023/10/27 07:07:21;;;;;;;0.00;0.00;;;11.50;99.90;;;;;;4992968;28;20230;-59
2023/10/27 07:09:48;;;;;;;0.37;0.00;;;11.40;99.90;;;;;;4983920;28;20262;-59
2023/10/27 07:12:15;;;;;;;0.00;0.00;;;11.40;99.90;;;;;;4993257;28;20588;-60
2023/10/27 07:14:44;;;;;;;0.10;0.10;;;11.30;99.90;;;;;;4992200;28;20257;-59
2023/10/27 07:17:11;;;;;;;0.83;0.17;;;11.20;99.90;;;;;;4993149;28;20198;-59
2023/10/27 07:19:39;;;;;;;0.13;0.13;;;11.20;99.90;;;;;;4993330;28;20273;-60
2023/10/27 07:22:06;;;;;;;0.97;0.10;;;11.10;99.90;;;;;;4987091;28;20259;-60
2023/10/27 07:24:35;;;;;;;0.10;0.10;;;11.10;99.90;;;;;;4994768;28;20214;-60
2023/10/27 07:27:01;;;;;;;0.10;0.10;;;11.10;99.90;;;;;;4990323;28;20569;-60
2023/10/27 07:29:28;;;;;;;1.00;0.10;;;11.10;99.90;;;;;;4989409;28;20706;-59
2023/10/27 07:31:56;;;;;;;0.10;0.10;;;11.20;99.90;;;;;;4990440;28;20638;-60
2023/10/27 07:34:23;;;;;;;0.40;0.20;;;11.20;99.90;;;;;;4994539;28;20729;-60
2023/10/27 07:36:50;;;;;;;0.97;0.10;;;11.30;99.90;;;;;;4976875;28;20269;-60
2023/10/27 07:39:17;;;;;;;1.23;0.30;;;11.30;99.90;;;;;;4974838;28;20301;-60
2023/10/27 07:41:45;;;;;;;0.30;0.30;;;11.30;99.90;;;;;;4974682;28;20210;-59
2023/10/27 07:44:12;;;;;;;0.10;0.10;;;11.30;99.90;;;;;;4995947;28;20202;-60
2023/10/27 07:46:39;;;;;;;0.10;0.10;;;11.40;99.90;;;;;;4992279;28;20285;-60
2023/10/27 07:49:06;;;;;;;0.13;0.10;;;11.50;99.90;;;;;;4986222;28;20223;-60
2023/10/27 07:51:33;;;;;;;0.47;0.47;;;11.70;99.90;;;;;;4993135;28;20925;-60
2023/10/27 07:54:01;;;;;;;0.97;0.13;;;11.80;99.90;;;;;;4993752;28;20328;-59
2023/10/27 07:56:29;;;;;;;0.17;0.17;;;12.00;99.90;;;;;;4996427;28;20202;-59
2023/10/27 07:58:57;;;;;;;2.10;0.43;;;12.20;99.90;;;;;;4984324;28;20220;-60
2023/10/27 08:01:24;;;;;;;0.20;0.20;;;12.30;99.90;;;;;;4974335;28;20254;-60
2023/10/27 08:03:51;;;;;;;0.23;0.20;;;12.40;99.90;;;;;;4974150;28;20204;-60
2023/10/27 08:06:18;;;;;;;0.10;0.10;;;12.70;99.90;;;;;;4985761;28;20203;-60
2023/10/27 08:08:46;;;;;;;2.57;0.20;;;12.90;99.90;;;;;;4983982;28;20221;-60
2023/10/27 08:11:16;;;;;;;0.20;0.20;;;13.10;99.90;;;;;;4974153;28;20208;-60
2023/10/27 08:13:43;;;;;;;0.20;0.10;;;13.20;99.90;;;;;;4974129;28;20239;-60
2023/10/27 08:16:12;;;;;;;0.40;0.20;;;13.50;99.90;;;;;;4984106;28;20741;-60
2023/10/27 08:18:39;;;;;;;0.50;0.50;;;13.70;99.90;;;;;;4985357;28;20652;-60
2023/10/27 08:21:06;;;;;;;2.67;0.20;;;13.80;99.90;;;;;;4973973;28;20208;-60
2023/10/27 08:23:33;;;;;;;1.90;0.20;;;13.80;99.90;;;;;;4973548;28;20219;-59
2023/10/27 08:26:00;;;;;;;0.57;0.17;;;13.80;99.90;;;;;;4982163;28;20195;-60
2023/10/27 08:28:28;;;;;;;0.10;0.10;;;13.80;99.90;;;;;;4996122;28;20278;-60
2023/10/27 08:30:56;;;;;;;0.10;0.10;;;13.80;99.90;;;;;;4983411;28;20207;-60
2023/10/27 08:33:24;;;;;;;1.13;0.20;;;13.80;99.90;;;;;;4973593;28;20290;-60
2023/10/27 08:35:51;;;;;;;1.00;0.10;;;13.90;99.90;;;;;;4979321;28;20285;-59
2023/10/27 08:38:18;;;;;;;1.17;0.10;;;13.90;99.90;;;;;;4988067;28;20278;-60
2023/10/27 08:40:46;;;;;;;0.20;0.20;;;13.90;99.90;;;;;;4973596;28;20603;-60
2023/10/27 08:43:13;;;;;;;1.03;0.30;;;13.90;99.90;;;;;;4973417;28;20438;-60
2023/10/27 08:45:42;;;;;;;0.30;0.30;;;14.20;99.90;;;;;;4977811;28;20738;-60
2023/10/27 08:48:09;;;;;;;0.63;0.10;;;14.70;99.90;;;;;;4987407;28;20220;-60
2023/10/27 08:50:40;;;;;;;0.30;0.30;;;15.40;99.90;;;;;;4985597;28;20639;-60
2023/10/27 08:53:07;;;;;;;0.47;0.10;;;15.90;99.90;;;;;;4973001;28;20747;-60
2023/10/27 08:55:34;;;;;;;0.63;0.37;;;16.30;99.90;;;;;;4975751;28;20243;-60
2023/10/27 08:58:00;;;;;;;0.43;0.43;;;16.60;99.90;;;;;;4991043;28;20215;-60
2023/10/27 09:00:28;;;;;;;0.63;0.10;;;16.90;99.90;;;;;;4973297;28;20685;-60
2023/10/27 09:02:55;;;;;;;0.10;0.10;;;17.10;99.90;;;;;;4991162;28;20206;-60
2023/10/27 09:05:23;;;;;;;0.93;0.10;;;17.30;99.90;;;;;;4986886;28;20273;-60
2023/10/27 09:07:52;;;;;;;0.37;0.10;;;17.50;99.90;;;;;;4978899;28;21019;-60
2023/10/27 09:10:19;;;;;;;0.17;0.17;;;17.60;99.90;;;;;;4991652;28;20195;-60
2023/10/27 09:12:47;;;;;;;0.20;0.20;;;17.70;99.90;;;;;;4983984;28;20204;-60
2023/10/27 09:15:14;;;;;;;0.53;0.20;;;17.90;99.90;;;;;;4991322;28;20237;-60
2023/10/27 09:17:51;;;;;;;2.17;0.43;;;18.10;99.90;;;;;;4976266;28;20232;-60
2023/10/27 09:20:23;;;;;;;0.40;0.10;;;18.30;99.90;;;;;;4979487;28;20201;-60
2023/10/27 09:22:58;;;;;;;2.10;0.10;;;18.70;99.90;;;;;;4990402;28;20207;-60
2023/10/27 09:25:29;;;;;;;0.47;0.20;;;18.90;99.90;;;;;;4991043;28;20262;-60
2023/10/27 09:27:58;;;;;;;0.20;0.20;;;19.30;99.90;;;;;;4986663;28;20695;-65
2023/10/27 09:30:29;;;;;;;0.70;0.40;;;19.20;99.90;;;;;;4986259;28;20239;-65
2023/10/27 09:33:10;;;;;;;1.07;0.30;;;18.90;99.90;;;;;;4989804;28;20204;-61
2023/10/27 09:35:37;;;;;;;0.53;0.10;;;18.60;99.90;;;;;;4984211;28;20205;-61
2023/10/27 09:38:06;;;;;;;0.20;0.20;;;18.60;99.90;;;;;;4998745;28;20274;-61
2023/10/27 09:40:35;;;;;;;0.20;0.10;;;18.50;99.90;;;;;;4991700;28;20211;-61
2023/10/27 09:43:04;;;;;;;0.50;0.23;;;17.80;99.90;;;;;;4991515;28;20207;-61
2023/10/27 09:45:34;;;;;;;0.33;0.20;;;17.30;99.90;;;;;;4985640;28;20200;-61
2023/10/27 09:48:03;;;;;;;0.50;0.10;;;16.90;99.90;;;;;;4990092;28;20235;-61
2023/10/27 09:50:31;;;;;;;2.10;0.20;;;16.60;99.90;;;;;;4991270;28;20629;-68
2023/10/27 09:53:00;;;;;;;0.10;0.10;;;16.30;99.90;;;;;;4972808;28;20247;-60
2023/10/27 09:55:30;;;;;;;0.20;0.10;;;15.90;99.90;;;;;;4975665;28;20200;-60
2023/10/27 09:57:59;;;;;;;0.60;0.20;;;15.60;99.90;;;;;;4997924;28;20630;-60
2023/10/27 10:00:29;;;;;;;0.77;0.10;;;15.50;99.90;;;;;;4978001;28;20266;-60
2023/10/27 10:02:58;;;;;;;0.40;0.40;;;15.30;99.90;;;;;;4972339;28;20200;-63
2023/10/27 10:05:26;;;;;;;0.43;0.40;;;15.10;99.90;;;;;;4973634;28;20230;-62
2023/10/27 10:07:54;;;;;;;1.37;0.30;;;15.00;99.90;;;;;;4998311;28;20232;-64
2023/10/27 10:10:29;;;;;;;0.30;0.30;;;14.90;99.90;;;;;;4978528;28;20727;-61
2023/10/27 10:13:09;;;;;;;0.13;0.13;;;14.80;99.90;;;;;;4972295;28;20188;-64
2023/10/27 10:15:37;;;;;;;0.20;0.20;;;14.60;99.90;;;;;;4972576;28;20620;-63
2023/10/27 10:18:06;;;;;;;0.63;0.30;;;14.60;99.90;;;;;;4995133;28;20727;-66
2023/10/27 10:21:01;;;;;;;2.40;0.40;;;14.60;99.90;;;;;;4991621;28;20203;-64
2023/10/27 10:24:08;;;;;;;0.40;0.33;;;14.50;99.90;;;;;;4971880;28;20212;-68
2023/10/27 10:27:12;;;;;;;0.60;0.30;;;14.30;99.90;;;;;;4982531;28;20207;-67
2023/10/27 10:29:41;;;;;;;0.47;0.30;;;14.20;99.90;;;;;;4988220;28;20203;-69
2023/10/27 10:32:33;;;;;;;0.43;0.40;;;14.10;99.90;;;;;;4991635;28;20232;-59
2023/10/27 10:35:20;;;;;;;0.67;0.27;;;14.00;99.90;;;;;;4994352;28;20283;-59
2023/10/27 10:37:47;;;;;;;0.80;0.30;;;14.00;99.90;;;;;;4995558;28;20726;-59
2023/10/27 10:40:26;;;;;;;0.50;0.33;;;13.80;99.90;;;;;;4996169;28;20208;-59
2023/10/27 10:43:20;;;;;;;0.67;0.67;;;13.70;99.90;;;;;;4995043;28;20216;-59
2023/10/27 10:45:50;;;;;;;0.90;0.20;;;13.70;99.90;;;;;;4994077;28;20622;-59
2023/10/27 10:48:17;;;;;;;0.50;0.20;;;13.70;99.90;;;;;;4994928;28;20680;-65
2023/10/27 10:50:45;;;;;;;0.50;0.20;;;13.60;99.90;;;;;;5000139;28;20238;-64
2023/10/27 10:53:17;;;;;;;0.43;0.20;;;13.60;99.90;;;;;;4994410;28;20207;-65
2023/10/27 10:55:45;;;;;;;0.20;0.20;;;13.70;99.90;;;;;;4994544;28;20294;-65
2023/10/27 10:58:21;;;;;;;2.80;0.30;;;13.70;99.90;;;;;;4994712;28;20306;-65
2023/10/27 11:00:49;;;;;;;0.97;0.17;;;13.80;99.90;;;;;;4994749;28;20240;-65
2023/10/27 11:03:18;;;;;;;0.10;0.10;;;13.70;99.90;;;;;;4994091;28;20258;-65
2023/10/27 11:05:45;;;;;;;0.20;0.20;;;13.70;99.90;;;;;;4994447;28;20219;-63
2023/10/27 11:08:12;;;;;;;0.23;0.10;;;13.80;99.90;;;;;;4994306;28;20699;-65
2023/10/27 11:10:39;;;;;;;0.50;0.10;;;13.80;99.90;;;;;;4994175;28;20208;-65
2023/10/27 11:13:06;;;;;;;0.40;0.20;;;13.70;99.90;;;;;;4992275;28;20266;-64
2023/10/27 11:15:44;;;;;;;0.27;0.10;;;13.70;99.90;;;;;;4998498;28;20675;-64
2023/10/27 11:18:14;;;;;;;0.20;0.20;;;13.70;99.90;;;;;;4992475;28;20220;-66
2023/10/27 11:20:43;;;;;;;0.27;0.27;;;13.70;99.90;;;;;;4994003;28;20232;-67
2023/10/27 11:23:11;;;;;;;1.27;0.30;;;13.70;99.90;;;;;;4993164;28;20278;-65
2023/10/27 11:25:38;;;;;;;1.70;0.20;;;13.70;99.90;;;;;;4993201;28;20212;-64
2023/10/27 11:28:26;;;;;;;0.40;0.40;;;13.70;99.90;;;;;;4993743;28;20321;-65
2023/10/27 11:31:07;;;;;;;1.00;0.60;;;13.80;99.90;;;;;;4993769;28;20200;-66
2023/10/27 11:33:56;;;;;;;2.87;0.20;;;13.80;99.90;;;;;;4999251;28;20214;-66
2023/10/27 11:36:23;;;;;;;1.53;0.20;;;14.00;99.90;;;;;;4987826;28;20222;-65
2023/10/27 11:38:50;;;;;;;0.10;0.10;;;14.20;99.90;;;;;;4993815;28;20311;-67
2023/10/27 11:41:19;;;;;;;0.30;0.20;;;14.40;99.90;;;;;;4993833;28;20254;-67
2023/10/27 11:43:46;;;;;;;0.40;0.33;;;14.50;99.90;;;;;;4998798;28;20246;-67
2023/10/27 11:46:14;;;;;;;0.40;0.40;;;14.70;99.90;;;;;;4993703;28;20796;-67
2023/10/27 11:48:44;;;;;;;3.17;0.50;;;14.80;99.90;;;;;;4993050;28;20223;-68
2023/10/27 11:51:12;;;;;;;2.80;2.03;;;14.90;99.90;;;;;;4983966;28;20196;-62
2023/10/27 11:53:43;;;;;;;1.77;0.70;;;15.00;99.90;;;;;;4999482;28;20276;-61
2023/10/27 11:56:10;;;;;;;0.90;0.60;;;15.00;99.90;;;;;;4991082;28;20196;-60
2023/10/27 11:58:38;;;;;;;5.97;3.73;;;15.00;99.90;;;;;;4992386;28;20215;-69
2023/10/27 12:01:06;;;;;;;1.90;1.50;;;15.20;99.90;;;;;;4992090;28;20240;-61
2023/10/27 12:03:33;;;;;;;0.27;0.27;;;15.40;99.90;;;;;;4991790;28;20659;-60
2023/10/27 12:06:04;;;;;;;2.33;1.27;;;15.40;99.90;;;;;;4988133;28;20199;-60
2023/10/27 12:08:31;;;;;;;1.27;0.70;;;15.30;99.90;;;;;;4991016;28;20278;-61
2023/10/27 12:10:59;;;;;;;2.90;2.43;;;15.30;99.90;;;;;;4990488;28;20620;-60
2023/10/27 12:13:26;;;;;;;2.40;2.20;;;15.40;99.90;;;;;;4985048;28;20287;-60
2023/10/27 12:15:53;;;;;;;3.50;2.53;;;15.40;99.90;;;;;;4991673;28;20564;-60
2023/10/27 12:18:20;;;;;;;1.13;0.80;;;15.40;99.90;;;;;;4990296;28;20319;-60
2023/10/27 12:20:49;;;;;;;0.47;0.47;;;15.40;99.90;;;;;;4998458;28;20294;-60
2023/10/27 12:23:18;;;;;;;0.20;0.13;;;15.40;99.90;;;;;;4985511;28;20207;-61
2023/10/27 12:25:45;;;;;;;0.53;0.10;;;15.40;99.90;;;;;;4994326;28;20647;-60
2023/10/27 12:28:13;;;;;;;0.97;0.23;;;15.30;99.90;;;;;;4986930;28;20223;-60
2023/10/27 12:30:40;;;;;;;1.33;1.23;;;15.20;99.90;;;;;;4996513;28;20207;-60
2023/10/27 12:33:09;;;;;;;2.00;0.83;;;15.10;99.90;;;;;;4988788;28;20246;-60
2023/10/27 12:35:37;;;;;;;0.60;0.60;;;15.00;99.90;;;;;;4987121;28;20676;-60
2023/10/27 12:38:05;;;;;;;0.50;0.50;;;14.90;99.90;;;;;;4989101;28;20940;-60
2023/10/27 12:40:35;;;;;;;1.00;0.30;;;14.90;99.90;;;;;;4986872;28;20201;-60
2023/10/27 12:43:03;;;;;;;1.50;1.40;;;14.90;99.90;;;;;;4985372;28;20200;-60
2023/10/27 12:45:30;;;;;;;0.50;0.40;;;15.10;99.90;;;;;;4981623;28;20228;-60
2023/10/27 12:47:57;;;;;;;0.43;0.40;;;15.30;99.90;;;;;;4981094;28;20596;-60
2023/10/27 12:50:24;;;;;;;1.03;0.93;;;15.40;99.90;;;;;;4988455;28;20314;-60
2023/10/27 12:52:51;;;;;;;0.67;0.60;;;15.20;99.90;;;;;;4982611;28;20246;-61
2023/10/27 12:55:18;;;;;;;0.43;0.40;;;15.10;99.90;;;;;;4980547;28;20200;-60